createdAt,value
2023-07-03T00:03:51.207Z,2.4
2023-07-03T00:09:35.672Z,2.6
2023-07-03T00:15:21.164Z,2.1
2023-07-03T00:21:05.618Z,2
2023-07-03T00:26:49.960Z,2.4
2023-07-03T00:32:34.355Z,2.4
2023-07-03T00:38:18.848Z,2.3
2023-07-03T00:44:03.142Z,2.4
2023-07-03T00:49:47.672Z,2.4
2023-07-03T00:55:33.510Z,2.1
2023-07-03T01:01:23.097Z,2.5
2023-07-03T01:07:10.123Z,2.6
2023-07-03T01:12:56.819Z,2.6
2023-07-03T01:18:41.697Z,2.5
2023-07-03T01:24:38.816Z,2.3
2023-07-03T01:30:24.780Z,2.9
2023-07-03T01:36:10.031Z,2.8
2023-07-03T01:41:54.420Z,2.6
2023-07-03T01:47:39.017Z,2.6
2023-07-03T01:53:27.816Z,2.4
2023-07-03T01:59:13.458Z,2.8
2023-07-03T02:05:01.325Z,2.9
2023-07-03T02:10:45.548Z,3
2023-07-03T02:16:30.041Z,2.8
2023-07-03T02:22:14.421Z,3
2023-07-03T02:27:59.084Z,2.8
2023-07-03T02:33:43.263Z,3.2
2023-07-03T02:39:27.493Z,2.8
2023-07-03T02:45:12.404Z,2.7
2023-07-03T02:50:58.429Z,2.7
2023-07-03T02:56:42.689Z,2.9
2023-07-03T03:02:26.985Z,3.2
2023-07-03T03:08:11.414Z,2.9
2023-07-03T03:13:55.871Z,3.1
2023-07-03T03:19:40.050Z,2.8
2023-07-03T03:25:24.546Z,2.7
2023-07-03T03:31:08.971Z,3
2023-07-03T03:36:53.393Z,2.6
2023-07-03T03:42:37.646Z,2.8
2023-07-03T03:48:22.097Z,3
2023-07-03T03:54:07.259Z,3
2023-07-03T03:59:51.478Z,2.9
2023-07-03T04:05:35.866Z,2.9
2023-07-03T04:11:19.917Z,3
2023-07-03T04:17:04.465Z,3
2023-07-03T04:22:48.670Z,3.6
2023-07-03T04:28:32.763Z,3
2023-07-03T04:34:17.027Z,3.1
2023-07-03T04:40:01.461Z,2.9
2023-07-03T04:45:46.677Z,3.1
2023-07-03T04:51:31.469Z,3.1
2023-07-03T04:57:16.029Z,3.2
2023-07-03T05:03:00.837Z,3.4
2023-07-03T05:08:45.285Z,3.3
2023-07-03T05:14:29.560Z,2.9
2023-07-03T05:20:15.474Z,3.2
2023-07-03T05:25:59.723Z,3.3
2023-07-03T05:31:44.126Z,3.3
2023-07-03T05:37:28.511Z,3.3
2023-07-03T05:43:12.756Z,3.9
2023-07-03T05:48:57.005Z,3.7
2023-07-03T05:54:41.292Z,3.9
2023-07-03T06:00:25.866Z,3.7
2023-07-03T06:06:10.210Z,3.4
2023-07-03T06:11:54.445Z,3.5
2023-07-03T06:17:39.085Z,3.4
2023-07-03T06:23:23.453Z,3.8
2023-07-03T06:29:08.257Z,4
2023-07-03T06:34:54.883Z,3.6
2023-07-03T06:40:39.604Z,3.4
2023-07-03T06:46:23.917Z,3.9
2023-07-03T06:52:08.530Z,3.6
2023-07-03T06:57:52.859Z,3.6
2023-07-03T07:03:37.545Z,3.5
2023-07-03T07:09:22.148Z,3.2
2023-07-03T07:15:06.741Z,3.4
2023-07-03T07:20:51.107Z,3.2
2023-07-03T07:26:35.907Z,2.8
2023-07-03T07:32:22.584Z,2.9
2023-07-03T07:38:08.274Z,3
2023-07-03T07:43:54.092Z,2.7
2023-07-03T07:49:38.179Z,3
2023-07-03T07:55:23.440Z,2.9
2023-07-03T08:01:08.494Z,2.7
2023-07-03T08:06:53.654Z,2.7
2023-07-03T08:12:38.133Z,2.8
2023-07-03T08:18:22.447Z,2.9
2023-07-03T08:24:08.952Z,2.7
2023-07-03T08:29:58.509Z,2.8
2023-07-03T08:41:53.607Z,2.9
2023-07-03T08:47:38.260Z,2.8
2023-07-03T08:53:23.782Z,2.8
2023-07-03T08:59:08.718Z,3
2023-07-03T09:05:00.991Z,3
2023-07-03T09:10:50.224Z,3
2023-07-03T09:16:35.086Z,3.1
2023-07-03T09:22:24.591Z,3.1
2023-07-03T09:28:10.829Z,2.9
2023-07-03T09:33:55.301Z,2.9
2023-07-03T09:39:40.288Z,2.9
2023-07-03T09:45:26.019Z,3
2023-07-03T09:51:16.620Z,3
2023-07-03T09:57:00.944Z,2.6
2023-07-03T10:08:45.696Z,2.4
2023-07-03T10:14:35.036Z,2.5
2023-07-03T10:20:29.360Z,2.3
2023-07-03T10:26:15.049Z,2.5
2023-07-03T10:32:01.758Z,2.7
2023-07-03T10:37:48.365Z,2.6
2023-07-03T10:43:36.177Z,2.5
2023-07-03T10:49:24.213Z,2.5
2023-07-03T10:55:14.489Z,2.3
2023-07-03T11:01:03.293Z,2.3
2023-07-03T11:06:52.193Z,2.4
2023-07-03T11:12:41.812Z,2.3
2023-07-03T11:24:41.403Z,2.3
2023-07-03T11:30:27.315Z,2.1
2023-07-03T11:36:18.168Z,2.2
2023-07-03T11:48:03.340Z,2.3
2023-07-03T11:53:50.234Z,2.4
2023-07-03T11:59:38.905Z,2.6
2023-07-03T12:05:34.370Z,2.3
2023-07-03T12:11:18.949Z,2.1
2023-07-03T12:17:03.919Z,2.2
2023-07-03T12:22:49.056Z,2.2
2023-07-03T12:28:34.500Z,2.4
2023-07-03T12:34:23.949Z,2.6
2023-07-03T12:40:11.227Z,2.5
2023-07-03T12:45:57.446Z,2.3
2023-07-03T12:51:47.682Z,2.2
2023-07-03T12:57:34.368Z,2.5
2023-07-03T13:03:20.875Z,2.4
2023-07-03T13:09:06.253Z,2.1
2023-07-03T13:15:00.884Z,2.3
2023-07-03T13:20:50.317Z,2.2
2023-07-03T13:26:34.679Z,2.2
2023-07-03T13:32:20.257Z,2.5
2023-07-03T13:38:21.168Z,2.3
2023-07-03T13:44:05.436Z,2.7
2023-07-03T13:49:49.625Z,2.4
2023-07-03T13:55:34.168Z,2.6
2023-07-03T14:01:28.011Z,3
2023-07-03T14:07:13.400Z,4
2023-07-03T14:12:57.672Z,4.4
2023-07-03T14:18:42.442Z,4.3
2023-07-03T14:24:26.984Z,4
2023-07-03T14:30:12.341Z,3.7
2023-07-03T14:35:56.683Z,4
2023-07-03T14:41:41.171Z,3.7
2023-07-03T14:47:25.947Z,3.9
2023-07-03T14:53:10.581Z,3.6
2023-07-03T14:58:54.894Z,3.3
2023-07-03T15:04:39.623Z,3.3
2023-07-03T15:10:24.287Z,3.1
2023-07-03T15:16:08.629Z,3.3
2023-07-03T15:21:52.823Z,2.9
2023-07-03T15:27:37.088Z,3
2023-07-03T15:33:21.335Z,3.1
2023-07-03T15:39:05.691Z,3
2023-07-03T15:44:55.047Z,2.9
2023-07-03T15:50:39.301Z,2.6
2023-07-03T15:56:24.329Z,2.5
2023-07-03T16:02:09.780Z,2.5
2023-07-03T16:07:56.835Z,2.4
2023-07-03T16:13:42.120Z,2.5
2023-07-03T16:19:29.280Z,2.2
2023-07-03T16:25:14.337Z,2.4
2023-07-03T16:31:11.286Z,2.2
2023-07-03T16:36:56.097Z,2.2
2023-07-03T16:42:40.944Z,2.1
2023-07-03T16:48:25.309Z,2.7
2023-07-03T16:54:09.813Z,2.1
2023-07-03T16:59:54.035Z,2.3
2023-07-03T17:05:40.780Z,2.6
2023-07-03T17:11:25.458Z,2.5
2023-07-03T17:17:09.925Z,2.7
2023-07-03T17:22:54.285Z,2.4
2023-07-03T17:28:38.338Z,2.9
2023-07-03T17:34:22.677Z,2.6
2023-07-03T17:40:07.407Z,2.4
2023-07-03T17:45:52.679Z,2.1
2023-07-03T17:51:38.601Z,2.2
2023-07-03T17:57:22.843Z,2.3
2023-07-03T18:03:07.436Z,2.4
2023-07-03T18:08:52.617Z,2.5
2023-07-03T18:14:36.854Z,2.3
2023-07-03T18:20:21.124Z,2.4
2023-07-03T18:26:05.583Z,2.2
2023-07-03T18:31:50.101Z,2.7
2023-07-03T18:37:34.710Z,2.2
2023-07-03T18:43:19.728Z,2.8
2023-07-03T18:49:04.094Z,2.5
2023-07-03T18:54:48.364Z,2.3
2023-07-03T19:00:32.621Z,2.2
2023-07-03T19:06:19.118Z,2.1
2023-07-03T19:12:05.268Z,2
2023-07-03T19:17:51.297Z,2.2
2023-07-03T19:23:35.737Z,2.2
2023-07-03T19:29:20.045Z,2.1
2023-07-03T19:35:04.483Z,2
2023-07-03T19:40:48.649Z,1.9
2023-07-03T19:46:32.808Z,2
2023-07-03T19:52:17.185Z,2
2023-07-03T19:58:02.511Z,1.9
2023-07-03T20:03:47.304Z,2
2023-07-03T20:09:32.184Z,2.1
2023-07-03T20:15:16.504Z,2
2023-07-03T20:21:00.793Z,2.1
2023-07-03T20:26:44.974Z,1.8
2023-07-03T20:32:29.274Z,1.8
2023-07-03T20:38:13.679Z,1.9
2023-07-03T20:43:58.601Z,2
2023-07-03T20:49:43.031Z,2.1
2023-07-03T20:55:27.205Z,2
2023-07-03T21:01:17.529Z,1.8
2023-07-03T21:07:01.997Z,1.9
2023-07-03T21:12:46.265Z,2.2
2023-07-03T21:18:30.442Z,1.9
2023-07-03T21:24:15.282Z,1.8
2023-07-03T21:29:59.388Z,1.9
2023-07-03T21:35:43.648Z,2.1
2023-07-03T21:41:29.085Z,2
2023-07-03T21:47:13.489Z,1.8
2023-07-03T21:52:57.690Z,2
2023-07-03T21:58:43.043Z,1.8
2023-07-03T22:04:27.306Z,2
2023-07-03T22:10:12.403Z,1.9
2023-07-03T22:15:57.160Z,1.9
2023-07-03T22:21:42.390Z,2
2023-07-03T22:27:26.644Z,2
2023-07-03T22:33:11.122Z,1.9
2023-07-03T22:38:55.565Z,2.1
2023-07-03T22:44:39.764Z,2.2
2023-07-03T22:50:24.224Z,1.9
2023-07-03T22:56:09.442Z,1.7
2023-07-03T23:01:54.595Z,1.7
2023-07-03T23:07:38.947Z,2.1
2023-07-03T23:13:24.105Z,1.8
2023-07-03T23:19:09.633Z,1.8
2023-07-03T23:24:55.404Z,1.9
2023-07-03T23:30:40.690Z,1.9
2023-07-03T23:36:25.137Z,2
2023-07-03T23:42:09.976Z,2
2023-07-03T23:47:54.342Z,1.7
2023-07-03T23:53:39.437Z,1.9
2023-07-03T23:59:23.556Z,1.9
